createdAt,value
2023-03-29T00:02:02.317Z,2.00
2023-03-29T00:05:07.469Z,2.00
2023-03-29T00:08:09.589Z,2.03
2023-03-29T00:11:12.942Z,2.00
2023-03-29T00:14:15.340Z,2.03
2023-03-29T00:17:17.628Z,1.92
2023-03-29T00:20:20.016Z,1.65
2023-03-29T00:23:22.904Z,1.84
2023-03-29T00:26:25.016Z,1.64
2023-03-29T00:29:27.229Z,1.69
2023-03-29T00:32:29.270Z,1.74
2023-03-29T00:35:31.577Z,1.53
2023-03-29T00:38:33.799Z,1.59
2023-03-29T00:41:36.095Z,1.50
2023-03-29T00:44:56.984Z,1.53
2023-03-29T00:48:05.856Z,1.15
2023-03-29T00:51:14.363Z,1.31
2023-03-29T00:54:18.879Z,1.41
2023-03-29T00:57:25.820Z,1.35
2023-03-29T01:00:37.072Z,1.18
2023-03-29T01:03:46.547Z,1.25
2023-03-29T01:07:07.642Z,1.31
2023-03-29T01:10:19.597Z,1.15
2023-03-29T01:13:28.106Z,1.12
2023-03-29T01:16:33.788Z,1.17
2023-03-29T01:19:43.949Z,1.22
2023-03-29T01:22:58.364Z,1.19
2023-03-29T01:26:22.368Z,1.24
2023-03-29T01:29:37.611Z,1.00
2023-03-29T01:32:52.270Z,1.13
2023-03-29T01:36:09.181Z,1.01
2023-03-29T01:39:11.520Z,1.13
2023-03-29T01:42:31.161Z,1.36
2023-03-29T01:45:53.067Z,1.44
2023-03-29T01:49:19.422Z,1.39
2023-03-29T01:52:50.580Z,1.29
2023-03-29T01:55:59.376Z,1.37
2023-03-29T01:59:08.543Z,1.33
2023-03-29T02:02:16.096Z,1.13
2023-03-29T02:05:20.877Z,1.18
2023-03-29T02:08:23.836Z,1.18
2023-03-29T02:11:29.436Z,1.16
2023-03-29T02:14:31.595Z,0.98
2023-03-29T02:17:33.838Z,1.16
2023-03-29T02:20:40.729Z,1.19
2023-03-29T02:23:46.160Z,0.93
2023-03-29T02:26:49.076Z,0.98
2023-03-29T02:29:51.328Z,0.85
2023-03-29T02:33:25.312Z,0.93
2023-03-29T02:36:34.988Z,0.85
2023-03-29T02:39:38.723Z,0.89
2023-03-29T02:42:44.668Z,0.70
2023-03-29T02:45:47.545Z,1.13
2023-03-29T02:48:52.386Z,0.98
2023-03-29T02:51:57.780Z,0.69
2023-03-29T02:55:03.868Z,1.03
2023-03-29T02:58:10.463Z,0.82
2023-03-29T03:01:12.959Z,0.97
2023-03-29T03:04:18.262Z,0.78
2023-03-29T03:07:20.463Z,0.92
2023-03-29T03:10:24.674Z,0.89
2023-03-29T03:13:26.704Z,0.75
2023-03-29T03:16:29.041Z,0.88
2023-03-29T03:19:39.337Z,0.79
2023-03-29T03:22:44.195Z,0.86
2023-03-29T03:25:49.341Z,0.66
2023-03-29T03:28:51.491Z,0.68
2023-03-29T03:31:54.286Z,0.76
2023-03-29T03:34:56.740Z,0.77
2023-03-29T03:37:59.173Z,0.84
2023-03-29T03:41:04.368Z,0.46
2023-03-29T03:44:07.244Z,0.60
2023-03-29T03:47:09.656Z,0.58
2023-03-29T03:50:12.020Z,0.72
2023-03-29T03:53:14.341Z,0.68
2023-03-29T03:56:16.525Z,0.63
2023-03-29T03:59:18.775Z,0.69
2023-03-29T04:02:22.878Z,0.83
2023-03-29T04:05:25.424Z,0.87
2023-03-29T04:08:27.984Z,0.61
2023-03-29T04:11:30.204Z,0.97
2023-03-29T04:14:33.383Z,1.04
2023-03-29T04:17:35.933Z,0.95
2023-03-29T04:20:39.548Z,0.84
2023-03-29T04:23:43.268Z,0.87
2023-03-29T04:26:45.405Z,0.95
2023-03-29T04:29:47.910Z,0.85
2023-03-29T04:32:50.573Z,0.81
2023-03-29T04:35:53.004Z,0.83
2023-03-29T04:38:56.133Z,0.90
2023-03-29T04:41:58.477Z,0.87
2023-03-29T04:45:01.295Z,1.14
2023-03-29T04:48:03.668Z,1.14
2023-03-29T04:51:06.422Z,1.10
2023-03-29T04:54:10.381Z,1.03
2023-03-29T04:57:14.107Z,1.26
2023-03-29T05:00:17.250Z,1.10
2023-03-29T05:03:22.137Z,1.17
2023-03-29T05:06:24.130Z,1.43
2023-03-29T05:09:26.503Z,1.49
2023-03-29T05:12:32.818Z,1.72
2023-03-29T05:15:43.041Z,1.67
2023-03-29T05:18:45.350Z,1.59
2023-03-29T05:21:53.416Z,1.27
2023-03-29T05:24:55.672Z,1.46
2023-03-29T05:27:58.292Z,1.69
2023-03-29T05:31:05.871Z,1.65
2023-03-29T05:34:08.350Z,1.72
2023-03-29T05:37:11.165Z,1.94
2023-03-29T05:40:15.411Z,1.74
2023-03-29T05:43:23.611Z,1.88
2023-03-29T05:46:41.989Z,1.68
2023-03-29T05:50:15.559Z,1.78
2023-03-29T05:54:25.841Z,1.95
2023-03-29T07:19:40.906Z,3.75
2023-03-29T07:22:57.141Z,3.50
2023-03-29T07:26:07.994Z,3.82
2023-03-29T07:38:53.985Z,4.29
2023-03-29T07:46:37.396Z,4.47
2023-03-29T07:50:13.408Z,4.58
2023-03-29T07:57:23.341Z,4.87
2023-03-29T09:39:24.313Z,5.93
2023-03-29T09:42:58.462Z,6.03
2023-03-29T09:51:58.752Z,6.00
2023-03-29T10:09:22.431Z,7.06
2023-03-29T10:33:09.216Z,7.37
2023-03-29T10:36:20.672Z,6.99
2023-03-29T10:39:27.698Z,7.51
2023-03-29T10:42:35.790Z,7.39
2023-03-29T10:45:53.704Z,7.50
2023-03-29T10:49:13.747Z,7.64
2023-03-29T10:52:45.083Z,7.82
2023-03-29T10:56:17.660Z,7.91
2023-03-29T11:04:15.812Z,8.67
2023-03-29T11:07:33.416Z,8.72
2023-03-29T11:40:50.551Z,9.34
2023-03-29T11:48:38.876Z,9.15
2023-03-29T11:51:50.101Z,9.56
2023-03-29T11:55:36.624Z,10.12
2023-03-29T11:58:59.688Z,9.86
2023-03-29T12:02:15.293Z,10.06
2023-03-29T12:05:34.920Z,9.77
2023-03-29T12:08:48.146Z,9.90
2023-03-29T12:12:15.429Z,9.75
2023-03-29T12:15:29.489Z,9.32
2023-03-29T12:19:17.923Z,9.82
2023-03-29T12:35:47.445Z,9.78
2023-03-29T12:48:00.351Z,9.24
2023-03-29T12:51:24.706Z,9.39
2023-03-29T12:54:33.888Z,9.22
2023-03-29T12:57:45.186Z,9.19
2023-03-29T13:00:57.674Z,9.43
2023-03-29T13:04:05.933Z,9.38
2023-03-29T13:07:37.893Z,9.42
2023-03-29T13:10:42.555Z,9.45
2023-03-29T13:13:44.886Z,9.40
2023-03-29T13:17:01.449Z,9.59
2023-03-29T13:20:50.742Z,9.95
2023-03-29T13:24:05.765Z,9.65
2023-03-29T13:27:15.975Z,9.53
2023-03-29T13:30:33.937Z,9.61
2023-03-29T13:34:05.668Z,9.46
2023-03-29T13:37:28.648Z,9.15
2023-03-29T13:40:34.371Z,9.61
2023-03-29T13:43:42.402Z,9.87
2023-03-29T13:48:05.138Z,9.80
2023-03-29T13:51:14.113Z,9.77
2023-03-29T13:54:19.366Z,9.96
2023-03-29T13:57:40.980Z,10.24
2023-03-29T14:00:56.180Z,10.30
2023-03-29T14:03:59.631Z,10.38
2023-03-29T14:07:07.323Z,10.53
2023-03-29T14:10:15.256Z,10.09
2023-03-29T14:13:20.897Z,9.66
2023-03-29T14:16:27.278Z,9.56
2023-03-29T14:19:37.877Z,9.63
2023-03-29T14:22:42.593Z,9.64
2023-03-29T14:25:46.954Z,9.84
2023-03-29T14:28:58.663Z,9.64
2023-03-29T14:32:20.579Z,9.55
2023-03-29T14:35:31.471Z,9.85
2023-03-29T14:38:37.942Z,9.89
2023-03-29T14:41:43.450Z,10.22
2023-03-29T14:44:45.940Z,10.29
2023-03-29T14:47:50.503Z,10.29
2023-03-29T14:50:54.399Z,9.75
2023-03-29T14:54:00.430Z,10.01
2023-03-29T14:57:15.078Z,10.05
2023-03-29T15:00:26.964Z,10.13
2023-03-29T15:03:54.172Z,9.98
2023-03-29T15:06:58.836Z,9.92
2023-03-29T15:10:08.410Z,9.89
2023-03-29T15:13:21.120Z,9.53
2023-03-29T15:16:32.253Z,9.41
2023-03-29T15:19:41.437Z,9.65
2023-03-29T15:23:32.107Z,9.85
2023-03-29T15:26:44.151Z,9.52
2023-03-29T15:29:49.395Z,9.58
2023-03-29T15:32:53.494Z,9.60
2023-03-29T15:35:55.660Z,9.73
2023-03-29T15:38:58.719Z,9.80
2023-03-29T15:42:02.142Z,9.55
2023-03-29T15:45:07.433Z,9.72
2023-03-29T15:48:17.171Z,9.56
2023-03-29T15:51:19.365Z,9.61
2023-03-29T15:54:33.801Z,9.43
2023-03-29T15:57:56.925Z,9.49
2023-03-29T16:01:39.763Z,9.20
2023-03-29T16:04:42.493Z,9.29
2023-03-29T16:07:47.748Z,9.29
2023-03-29T16:10:49.971Z,9.33
2023-03-29T16:13:52.323Z,9.40
2023-03-29T16:17:01.475Z,9.35
2023-03-29T16:20:05.388Z,9.32
2023-03-29T16:23:14.536Z,9.37
2023-03-29T16:26:31.357Z,9.43
2023-03-29T16:29:41.544Z,9.53
2023-03-29T16:32:46.363Z,9.56
2023-03-29T16:35:59.159Z,9.35
2023-03-29T16:39:06.376Z,9.31
2023-03-29T16:42:12.635Z,9.07
2023-03-29T16:46:10.317Z,9.25
2023-03-29T16:49:20.301Z,9.00
2023-03-29T16:52:23.718Z,9.09
2023-03-29T16:55:46.766Z,9.05
2023-03-29T16:58:53.816Z,9.10
2023-03-29T17:02:35.153Z,9.03
2023-03-29T17:05:42.920Z,9.04
2023-03-29T17:09:11.200Z,9.11
2023-03-29T17:12:33.435Z,8.78
2023-03-29T17:15:47.971Z,8.86
2023-03-29T17:19:24.798Z,9.07
2023-03-29T17:22:54.422Z,8.91
2023-03-29T17:26:11.125Z,8.87
2023-03-29T17:29:20.127Z,8.75
2023-03-29T17:32:32.979Z,8.74
2023-03-29T17:36:11.501Z,8.75
2023-03-29T17:39:39.144Z,8.60
2023-03-29T17:44:16.369Z,8.56
2023-03-29T17:46:47.729Z,8.42
2023-03-29T17:49:51.912Z,8.56
2023-03-29T17:52:54.234Z,8.63
2023-03-29T17:55:56.461Z,8.63
2023-03-29T17:59:00.423Z,8.54
2023-03-29T18:02:05.508Z,8.43
2023-03-29T18:05:09.644Z,8.50
2023-03-29T18:08:14.867Z,8.44
2023-03-29T18:11:22.685Z,8.52
2023-03-29T18:14:27.211Z,8.59
2023-03-29T18:17:29.597Z,8.58
2023-03-29T18:20:31.721Z,8.48
2023-03-29T18:23:34.037Z,8.28
2023-03-29T18:26:37.530Z,8.44
2023-03-29T18:29:40.077Z,8.23
2023-03-29T18:32:45.480Z,8.39
2023-03-29T18:35:50.629Z,8.32
2023-03-29T18:38:56.754Z,8.20
2023-03-29T18:41:59.131Z,8.09
2023-03-29T18:45:01.733Z,8.35
2023-03-29T18:48:08.094Z,8.16
2023-03-29T18:51:11.659Z,8.40
2023-03-29T18:54:17.213Z,8.37
2023-03-29T18:57:21.931Z,8.18
2023-03-29T19:00:24.523Z,8.15
2023-03-29T19:03:27.849Z,8.40
2023-03-29T19:06:31.047Z,8.48
2023-03-29T19:09:33.991Z,8.53
2023-03-29T19:12:41.412Z,8.35
2023-03-29T19:15:44.342Z,8.00
2023-03-29T19:18:48.180Z,8.26
2023-03-29T19:21:50.881Z,7.99
2023-03-29T19:24:53.161Z,8.05
2023-03-29T19:27:55.602Z,8.00
2023-03-29T19:31:02.691Z,7.96
2023-03-29T19:34:07.107Z,8.05
2023-03-29T19:37:09.476Z,7.99
2023-03-29T19:40:11.993Z,8.22
2023-03-29T19:43:16.806Z,8.05
2023-03-29T19:46:20.589Z,8.01
2023-03-29T19:49:22.928Z,8.24
2023-03-29T19:52:28.008Z,8.13
2023-03-29T19:55:33.980Z,8.26
2023-03-29T19:58:38.444Z,8.06
2023-03-29T20:01:44.438Z,8.16
2023-03-29T20:04:48.618Z,8.05
2023-03-29T20:07:51.557Z,7.98
2023-03-29T20:11:02.977Z,7.98
2023-03-29T20:14:05.542Z,7.99
2023-03-29T20:17:08.032Z,8.09
2023-03-29T20:20:12.079Z,7.99
2023-03-29T20:23:15.501Z,8.02
2023-03-29T20:26:17.591Z,7.88
2023-03-29T20:29:19.854Z,7.79
2023-03-29T20:32:22.215Z,8.21
2023-03-29T20:35:24.855Z,8.00
2023-03-29T20:38:27.192Z,7.93
2023-03-29T20:41:29.253Z,8.12
2023-03-29T20:44:32.411Z,7.76
2023-03-29T20:47:42.634Z,7.98
2023-03-29T20:50:49.832Z,8.21
2023-03-29T20:53:51.806Z,8.16
2023-03-29T20:56:55.077Z,8.17
2023-03-29T20:59:57.129Z,7.99
2023-03-29T21:02:59.471Z,8.04
2023-03-29T21:06:02.468Z,8.24
2023-03-29T21:09:05.789Z,8.27
2023-03-29T21:12:08.196Z,8.41
2023-03-29T21:15:11.092Z,8.25
2023-03-29T21:18:13.326Z,8.25
2023-03-29T21:21:15.361Z,8.36
2023-03-29T21:24:18.676Z,8.42
2023-03-29T21:27:22.928Z,8.30
2023-03-29T21:30:25.146Z,8.17
2023-03-29T21:33:27.211Z,8.14
2023-03-29T21:36:36.556Z,8.16
2023-03-29T21:39:38.620Z,8.13
2023-03-29T21:42:40.714Z,8.17
2023-03-29T21:45:42.685Z,8.06
2023-03-29T21:48:44.716Z,7.92
2023-03-29T21:51:47.206Z,8.25
2023-03-29T21:54:49.187Z,8.11
2023-03-29T21:57:51.173Z,8.24
2023-03-29T22:00:56.219Z,8.27
2023-03-29T22:03:58.280Z,8.35
2023-03-29T22:07:00.231Z,8.47
2023-03-29T22:10:05.660Z,8.36
2023-03-29T22:13:09.067Z,8.27
2023-03-29T22:16:14.267Z,7.75
2023-03-29T22:19:16.817Z,7.77
2023-03-29T22:22:19.440Z,7.89
2023-03-29T22:25:22.953Z,8.23
2023-03-29T22:28:24.945Z,8.17
2023-03-29T22:31:28.622Z,8.32
2023-03-29T22:34:31.185Z,8.15
2023-03-29T22:37:33.566Z,8.13
2023-03-29T22:40:39.448Z,7.99
2023-03-29T22:43:41.513Z,7.38
2023-03-29T22:46:43.698Z,7.40
2023-03-29T22:49:46.372Z,7.46
2023-03-29T22:52:48.331Z,7.50
2023-03-29T22:55:50.985Z,7.61
2023-03-29T22:58:52.969Z,7.83
2023-03-29T23:01:55.037Z,7.63
2023-03-29T23:04:57.122Z,7.71
2023-03-29T23:07:59.448Z,7.42
2023-03-29T23:11:05.447Z,7.47
2023-03-29T23:14:08.743Z,7.41
2023-03-29T23:17:11.028Z,7.60
2023-03-29T23:20:13.966Z,7.44
2023-03-29T23:23:17.174Z,7.34
2023-03-29T23:26:19.324Z,7.41
2023-03-29T23:29:21.395Z,7.19
2023-03-29T23:32:23.914Z,7.31
2023-03-29T23:35:25.870Z,7.12
2023-03-29T23:38:27.912Z,7.32
2023-03-29T23:41:30.773Z,7.24
2023-03-29T23:44:33.011Z,7.03
2023-03-29T23:47:35.606Z,7.22
2023-03-29T23:50:37.662Z,7.22
2023-03-29T23:53:39.796Z,7.38
2023-03-29T23:56:41.584Z,7.47
2023-03-29T23:59:43.683Z,7.29
